Time;durP1;ratioP1;P1;durP2;ratioP2;P2;SDS_P1;SDS_P2;PMS_P1;PMS_P2;Temp;Humidity;BMP_temperature;BMP_pressure;BME280_temperature;BME280_humidity;BME280_pressure;Samples;Min_cycle;Max_cycle;Signal;HPM_P1;HPM_P2
2023/03/27 00:01:10;;;;;;;8.85;2.63;;;;;;;6.78;57.88;101408.56;5052851;28;20025;-67
2023/03/27 00:03:37;;;;;;;7.28;2.25;;;;;;;6.79;57.11;101412.16;5063965;28;20052;-67
2023/03/27 00:06:06;;;;;;;9.68;2.33;;;;;;;6.78;57.80;101411.31;5063486;28;20532;-67
2023/03/27 00:08:32;;;;;;;12.85;3.17;;;;;;;6.79;57.61;101414.94;5067646;28;20728;-67
2023/03/27 00:11:00;;;;;;;10.02;2.53;;;;;;;6.75;58.02;101421.94;5068074;28;20135;-67
2023/03/27 00:13:25;;;;;;;10.23;2.28;;;;;;;6.78;58.03;101427.88;5068647;28;20403;-67
2023/03/27 00:15:53;;;;;;;8.85;2.25;;;;;;;6.75;58.96;101433.81;5068115;28;20032;-68
2023/03/27 00:18:18;;;;;;;6.68;2.38;;;;;;;6.79;58.29;101434.25;5055029;28;20051;-68
2023/03/27 00:20:44;;;;;;;9.52;2.80;;;;;;;6.77;58.53;101439.97;5064858;28;20493;-67
2023/03/27 00:23:09;;;;;;;8.38;2.28;;;;;;;6.80;58.10;101449.75;5069470;28;20032;-66
2023/03/27 00:25:35;;;;;;;13.05;2.70;;;;;;;6.75;58.99;101444.00;5069216;28;20060;-67
2023/03/27 00:28:02;;;;;;;10.07;2.42;;;;;;;6.74;59.04;101451.44;5068353;28;20491;-67
2023/03/27 00:30:29;;;;;;;10.15;2.42;;;;;;;6.76;58.75;101456.72;5063972;28;20021;-67
2023/03/27 00:32:56;;;;;;;10.57;2.13;;;;;;;6.72;59.43;101466.50;5072201;28;20721;-66
2023/03/27 00:35:22;;;;;;;9.07;2.25;;;;;;;6.71;58.78;101462.03;5070927;28;20028;-68
2023/03/27 00:37:48;;;;;;;10.52;2.25;;;;;;;6.70;59.27;101465.88;5066518;28;20029;-67
2023/03/27 00:40:16;;;;;;;9.90;2.63;;;;;;;6.70;59.44;101460.34;5052896;28;20439;-67
2023/03/27 00:42:47;;;;;;;8.45;2.40;;;;;;;6.70;60.18;101465.88;5054626;28;20028;-67
2023/03/27 00:45:17;;;;;;;9.23;2.45;;;;;;;6.66;59.88;101461.84;5052563;28;20024;-67
2023/03/27 00:47:44;;;;;;;9.95;2.40;;;;;;;6.63;60.05;101468.63;5070034;28;20036;-67
2023/03/27 00:50:17;;;;;;;9.35;2.10;;;;;;;6.64;60.38;101465.69;5071938;28;20058;-67
2023/03/27 00:52:43;;;;;;;;;;;;;;;6.82;59.74;101469.69;5056381;28;20103;-66
2023/03/27 00:55:14;;;;;;;8.32;2.53;;;;;;;6.63;60.36;101471.38;5062914;28;19943;-66
2023/03/27 00:57:43;;;;;;;8.45;2.20;;;;;;;6.60;60.09;101480.94;5066691;28;20033;-67
2023/03/27 01:00:12;;;;;;;8.45;2.03;;;;;;;6.60;60.13;101488.34;5072458;28;20063;-67
2023/03/27 01:02:43;;;;;;;7.97;2.10;;;;;;;6.57;60.38;101495.16;5066969;28;20622;-67
2023/03/27 01:05:10;;;;;;;12.30;2.60;;;;;;;6.61;60.14;101499.19;5058800;28;20480;-67
2023/03/27 01:07:38;;;;;;;6.35;2.17;;;;;;;6.53;60.45;101495.78;5068112;28;20047;-67
2023/03/27 01:10:06;;;;;;;6.88;2.55;;;;;;;6.57;60.69;101492.41;5072179;28;20104;-67
2023/03/27 01:12:48;;;;;;;11.45;2.28;;;;;;;6.56;60.92;101495.34;5058937;28;20088;-67
2023/03/27 01:15:27;;;;;;;6.78;2.10;;;;;;;6.54;59.88;101490.06;5069349;28;20025;-68
2023/03/27 01:18:10;;;;;;;6.13;1.90;;;;;;;6.51;60.19;101498.75;5057903;28;20590;-67
2023/03/27 01:20:50;;;;;;;8.63;2.38;;;;;;;6.53;60.58;101496.63;5051822;28;20032;-67
2023/03/27 01:23:44;;;;;;;6.68;1.92;;;;;;;6.52;61.39;101505.94;5052171;28;20037;-68
2023/03/27 01:26:30;;;;;;;5.60;1.92;;;;;;;6.54;60.58;101508.53;5061256;28;20128;-67
2023/03/27 01:29:10;;;;;;;9.85;2.20;;;;;;;6.49;61.27;101505.56;5056816;28;20037;-67
2023/03/27 01:32:00;;;;;;;8.75;2.30;;;;;;;6.53;60.93;101518.69;5064037;28;20062;-67
2023/03/27 01:34:53;;;;;;;9.02;2.92;;;;;;;6.50;61.35;101521.03;5063893;28;20563;-67
2023/03/27 01:37:52;;;;;;;9.32;2.40;;;;;;;6.53;61.34;101521.47;5059116;28;20111;-67
2023/03/27 01:40:40;;;;;;;7.18;2.22;;;;;;;6.52;61.89;101524.41;5063144;28;20403;-67
2023/03/27 01:43:16;;;;;;;7.47;2.38;;;;;;;6.47;62.08;101527.81;5068691;28;20050;-67
2023/03/27 01:45:50;;;;;;;9.18;2.38;;;;;;;6.49;61.51;101533.13;5069653;28;20028;-67
2023/03/27 01:48:23;;;;;;;10.32;2.33;;;;;;;6.41;62.10;101536.94;5071596;28;20036;-68
2023/03/27 01:50:53;;;;;;;6.90;2.15;;;;;;;6.44;62.19;101543.91;5067871;28;20032;-67
2023/03/27 01:53:33;;;;;;;9.20;2.30;;;;;;;6.46;63.11;101539.06;5069546;28;20032;-67
2023/03/27 01:56:16;;;;;;;6.63;2.22;;;;;;;6.43;62.91;101542.22;5071830;28;20054;-68
2023/03/27 01:58:46;;;;;;;4.57;2.30;;;;;;;6.39;62.99;101542.63;5067271;28;20121;-68
2023/03/27 02:01:18;;;;;;;4.78;2.20;;;;;;;6.38;62.74;101543.69;5051166;28;20404;-67
2023/03/27 02:03:48;;;;;;;7.45;2.00;;;;;;;6.34;63.12;101547.94;5050693;28;20499;-67
2023/03/27 02:06:20;;;;;;;8.20;2.58;;;;;;;6.36;62.75;101544.97;5055380;28;20029;-67
2023/03/27 02:08:53;;;;;;;6.63;2.15;;;;;;;6.37;62.47;101546.69;5070638;28;20431;-67
2023/03/27 02:11:22;;;;;;;6.65;2.33;;;;;;;6.33;62.93;101554.50;5070602;28;20047;-67
2023/03/27 02:14:12;;;;;;;8.13;1.95;;;;;;;6.39;62.84;101558.34;5067833;28;20033;-67
2023/03/27 02:16:44;;;;;;;8.32;2.42;;;;;;;6.32;63.00;101561.06;5065672;28;20029;-67
2023/03/27 02:19:19;;;;;;;7.60;2.50;;;;;;;6.32;62.70;101565.72;5057361;28;20119;-67
2023/03/27 02:21:48;;;;;;;11.13;2.50;;;;;;;6.32;62.45;101565.72;5051317;28;20025;-66
2023/03/27 02:24:16;;;;;;;5.25;2.20;;;;;;;6.28;63.07;101576.31;5050798;28;20043;-66
2023/03/27 02:26:42;;;;;;;8.07;2.40;;;;;;;6.27;62.59;101584.81;5056269;28;20024;-66
2023/03/27 02:29:41;;;;;;;8.43;2.72;;;;;;;6.33;62.89;101578.50;5064253;28;20017;-67
2023/03/27 02:32:31;;;;;;;5.50;2.45;;;;;;;6.36;63.16;101580.81;5069935;28;20375;-67
2023/03/27 02:35:20;;;;;;;6.45;2.60;;;;;;;6.31;63.13;101583.34;5070769;28;20123;-67
2023/03/27 02:37:54;;;;;;;6.85;2.65;;;;;;;6.28;62.93;101590.09;5055302;28;20041;-67
2023/03/27 02:40:54;;;;;;;7.18;2.78;;;;;;;6.29;62.90;101589.06;5070115;28;20028;-68
2023/03/27 02:43:29;;;;;;;7.47;2.60;;;;;;;6.23;62.87;101592.66;5068997;28;20029;-67
2023/03/27 02:46:07;;;;;;;9.20;2.97;;;;;;;6.21;62.56;101591.13;5055849;28;20044;-67
2023/03/27 02:48:39;;;;;;;7.07;2.63;;;;;;;6.15;63.15;101599.19;5068205;28;20033;-67
2023/03/27 02:51:18;;;;;;;7.20;2.42;;;;;;;6.15;63.46;101599.19;5069864;28;20035;-67
2023/03/27 02:54:02;;;;;;;8.90;2.60;;;;;;;6.12;63.35;101605.09;5068652;28;20161;-67
2023/03/27 02:56:33;;;;;;;7.53;2.67;;;;;;;6.08;62.70;101601.06;5066697;28;20032;-66
2023/03/27 02:59:04;;;;;;;11.52;3.00;;;;;;;6.08;63.10;101603.81;5070274;28;20074;-66
2023/03/27 03:01:31;;;;;;;8.27;3.13;;;;;;;6.07;63.23;101615.06;5063064;28;20078;-67
2023/03/27 03:04:09;;;;;;;9.68;2.83;;;;;;;6.08;63.21;101609.31;5067562;28;20062;-66
2023/03/27 03:06:35;;;;;;;6.43;2.25;;;;;;;6.05;63.13;101620.78;5068515;28;20024;-67
2023/03/27 03:09:05;;;;;;;7.53;2.38;;;;;;;6.08;62.74;101625.00;5055862;28;20025;-67
2023/03/27 03:11:33;;;;;;;9.38;3.05;;;;;;;6.06;63.15;101621.63;5049548;28;20634;-67
2023/03/27 03:13:59;;;;;;;8.27;2.30;;;;;;;6.09;62.85;101622.06;5049982;28;20029;-67
2023/03/27 03:16:24;;;;;;;7.82;2.75;;;;;;;6.09;62.48;101624.84;5062740;28;20075;-67
2023/03/27 03:18:50;;;;;;;9.65;2.78;;;;;;;6.07;63.07;101629.69;5064672;28;20036;-67
2023/03/27 03:21:15;;;;;;;10.38;2.85;;;;;;;6.05;62.52;101636.44;5067542;28;20067;-66
2023/03/27 03:23:40;;;;;;;10.07;2.58;;;;;;;6.05;63.22;101631.81;5056702;28;20132;-67
2023/03/27 03:26:06;;;;;;;7.57;2.35;;;;;;;6.11;62.87;101636.47;5077261;28;20052;-68
2023/03/27 03:28:33;;;;;;;7.60;2.40;;;;;;;6.10;62.27;101645.81;5069022;28;20036;-67
2023/03/27 03:31:01;;;;;;;9.00;2.80;;;;;;;6.05;62.75;101651.09;5061429;28;20071;-68
2023/03/27 03:33:28;;;;;;;8.15;2.42;;;;;;;6.04;62.27;101651.28;5066197;28;20066;-67
2023/03/27 03:35:57;;;;;;;7.97;2.47;;;;;;;6.03;62.44;101657.84;5057019;28;20106;-67
2023/03/27 03:38:26;;;;;;;8.80;2.75;;;;;;;5.96;62.33;101659.72;5066282;28;20064;-67
2023/03/27 03:40:57;;;;;;;8.02;2.67;;;;;;;5.98;62.39;101668.66;5067014;28;20390;-67
2023/03/27 03:43:27;;;;;;;12.30;2.60;;;;;;;5.98;62.46;101663.13;5050755;28;20044;-68
2023/03/27 03:45:53;;;;;;;7.50;2.28;;;;;;;5.93;62.48;101673.91;5059081;28;20036;-68
2023/03/27 03:48:19;;;;;;;7.28;2.33;;;;;;;5.90;62.68;101681.50;5069941;28;20107;-67
2023/03/27 03:50:46;;;;;;;7.70;2.63;;;;;;;5.93;63.01;101674.75;5066913;28;20482;-68
2023/03/27 03:53:12;;;;;;;8.38;2.60;;;;;;;5.91;62.05;101676.84;5062710;28;20497;-68
2023/03/27 03:55:38;;;;;;;6.45;2.85;;;;;;;5.92;62.54;101684.06;5084890;28;20040;-68
2023/03/27 03:58:04;;;;;;;9.43;2.78;;;;;;;5.88;62.54;101693.75;5068852;28;20067;-68
2023/03/27 04:00:30;;;;;;;10.02;3.17;;;;;;;5.85;62.86;101688.66;5068489;28;20037;-68
2023/03/27 04:02:56;;;;;;;8.70;2.97;;;;;;;5.85;62.74;101691.41;5062644;28;20032;-66
2023/03/27 04:05:22;;;;;;;4.85;2.28;;;;;;;5.85;62.97;101705.19;5069148;28;20522;-67
2023/03/27 04:07:48;;;;;;;10.25;2.70;;;;;;;5.84;63.19;101709.00;5053188;28;20035;-67
2023/03/27 04:10:14;;;;;;;6.55;2.47;;;;;;;5.80;63.16;101704.94;5056161;28;20325;-67
2023/03/27 04:12:40;;;;;;;4.38;2.35;;;;;;;5.79;63.08;101708.75;5069927;28;20464;-67
2023/03/27 04:15:06;;;;;;;6.78;2.45;;;;;;;5.81;62.71;101713.00;5055822;28;20477;-67
2023/03/27 04:17:32;;;;;;;10.48;2.65;;;;;;;5.82;62.90;101711.13;5052548;28;20070;-68
2023/03/27 04:20:01;;;;;;;6.22;2.83;;;;;;;5.81;62.76;101712.16;5057158;28;20373;-67
2023/03/27 04:22:26;;;;;;;8.68;2.35;;;;;;;5.76;62.71;101718.25;5070518;28;20037;-67
2023/03/27 04:24:52;;;;;;;6.88;2.20;;;;;;;5.77;62.79;101716.34;5052094;28;20029;-66
2023/03/27 04:27:19;;;;;;;6.15;2.28;;;;;;;5.77;62.83;101730.97;5071558;28;20086;-67
2023/03/27 04:29:46;;;;;;;6.90;2.03;;;;;;;5.74;62.85;101733.28;5067392;28;20044;-67
2023/03/27 04:32:12;;;;;;;8.45;2.35;;;;;;;5.72;63.32;101741.75;5051292;28;20061;-67
2023/03/27 04:34:39;;;;;;;6.47;2.13;;;;;;;5.70;63.53;101745.75;5072395;28;20036;-68
2023/03/27 04:37:05;;;;;;;6.03;2.00;;;;;;;5.71;63.03;101744.72;5073921;28;20063;-68
2023/03/27 04:39:34;;;;;;;8.40;2.22;;;;;;;5.69;63.29;101749.56;5082996;28;20390;-67
2023/03/27 04:42:01;;;;;;;8.18;2.22;;;;;;;5.66;62.99;101753.59;5080992;28;20028;-67
2023/03/27 04:44:26;;;;;;;5.68;2.00;;;;;;;5.65;63.26;101752.69;5080597;28;20082;-66
2023/03/27 04:46:52;;;;;;;8.38;2.40;;;;;;;5.66;63.09;101757.19;5074099;28;20502;-67
2023/03/27 04:49:17;;;;;;;5.53;2.28;;;;;;;5.63;63.38;101760.31;5068449;28;20423;-67
2023/03/27 04:51:44;;;;;;;7.82;2.50;;;;;;;5.62;62.89;101768.81;5064200;28;20391;-68
2023/03/27 04:54:09;;;;;;;9.98;2.30;;;;;;;5.62;63.26;101769.66;5071402;28;20033;-68
2023/03/27 04:56:34;;;;;;;7.90;2.20;;;;;;;5.59;63.10;101769.19;5067712;28;20507;-68
2023/03/27 04:59:02;;;;;;;7.50;2.00;;;;;;;5.58;63.66;101779.34;5066789;28;20051;-67
2023/03/27 05:01:28;;;;;;;7.93;2.28;;;;;;;5.57;62.88;101780.38;5069582;28;20024;-68
2023/03/27 05:03:55;;;;;;;5.25;2.03;;;;;;;5.57;63.68;101777.63;5071929;28;20043;-67
2023/03/27 05:06:20;;;;;;;5.88;2.25;;;;;;;5.58;63.99;101784.88;5070457;28;20032;-67
2023/03/27 05:08:46;;;;;;;5.32;2.25;;;;;;;5.57;64.11;101788.66;5066105;28;20036;-67
2023/03/27 05:11:11;;;;;;;12.65;2.70;;;;;;;5.57;63.79;101782.28;5060018;28;20029;-66
2023/03/27 05:13:36;;;;;;;8.90;2.47;;;;;;;5.56;64.13;101792.47;5071740;28;20480;-67
2023/03/27 05:16:02;;;;;;;7.70;2.47;;;;;;;5.57;64.23;101796.06;5062603;28;20061;-67
2023/03/27 05:18:29;;;;;;;7.68;2.42;;;;;;;5.55;64.38;101807.28;5060444;28;20392;-67
2023/03/27 05:20:55;;;;;;;9.60;2.40;;;;;;;5.56;64.36;101806.22;5060244;28;20044;-68
2023/03/27 05:23:21;;;;;;;7.07;2.20;;;;;;;5.60;64.36;101810.28;5053373;28;20486;-67
2023/03/27 05:25:46;;;;;;;6.80;2.30;;;;;;;5.59;64.83;101811.34;5054857;28;20062;-68
2023/03/27 05:28:11;;;;;;;6.88;2.38;;;;;;;5.58;64.41;101815.16;5070137;28;20119;-68
2023/03/27 05:30:37;;;;;;;9.95;2.70;;;;;;;5.58;64.67;101817.03;5062341;28;20045;-68
2023/03/27 05:33:02;;;;;;;8.38;2.20;;;;;;;5.60;64.41;101826.81;5066769;28;20114;-67
2023/03/27 05:35:27;;;;;;;9.10;2.33;;;;;;;5.60;64.93;101836.97;5068486;28;20028;-67
2023/03/27 05:37:55;;;;;;;6.22;2.28;;;;;;;5.60;65.09;101832.31;5061613;28;20035;-66
2023/03/27 05:40:25;;;;;;;7.93;2.67;;;;;;;5.58;64.58;101834.44;5051797;28;20032;-66
2023/03/27 05:42:53;;;;;;;8.57;2.60;;;;;;;5.60;65.11;101832.31;5058883;28;20035;-66
2023/03/27 05:45:19;;;;;;;5.20;2.22;;;;;;;5.63;64.96;101837.44;5051574;28;20032;-66
2023/03/27 05:47:47;;;;;;;11.88;2.60;;;;;;;5.61;65.18;101842.28;5067848;28;20027;-67
2023/03/27 05:50:13;;;;;;;7.38;2.20;;;;;;;5.62;65.33;101852.28;5055444;28;20039;-66
2023/03/27 05:52:39;;;;;;;7.55;2.25;;;;;;;5.62;64.81;101852.28;5056756;28;20037;-66
2023/03/27 05:55:05;;;;;;;6.40;2.20;;;;;;;5.66;65.09;101859.09;5058532;28;20034;-66
2023/03/27 05:57:30;;;;;;;7.00;2.75;;;;;;;5.69;65.50;101857.84;5061582;28;20791;-67
2023/03/27 05:59:56;;;;;;;6.47;2.00;;;;;;;5.70;65.15;101859.56;5057874;28;20032;-67
2023/03/27 06:02:22;;;;;;;10.57;2.05;;;;;;;5.74;64.87;101854.47;5052437;28;20040;-68
2023/03/27 06:04:47;;;;;;;7.32;2.22;;;;;;;5.77;64.67;101871.47;5057296;28;20029;-67
2023/03/27 06:07:13;;;;;;;7.00;2.50;;;;;;;5.77;64.97;101870.63;5057344;28;20032;-68
2023/03/27 06:09:39;;;;;;;8.13;2.38;;;;;;;5.82;65.08;101885.53;5058827;28;20024;-67
2023/03/27 06:12:04;;;;;;;6.00;2.95;;;;;;;5.83;64.89;101891.88;5065344;28;20040;-67
2023/03/27 06:14:30;;;;;;;13.88;2.50;;;;;;;5.83;64.41;101891.88;5061219;28;20024;-68
2023/03/27 06:16:55;;;;;;;6.07;2.47;;;;;;;5.74;64.43;101904.06;5066194;28;20056;-68
2023/03/27 06:19:23;;;;;;;6.43;3.33;;;;;;;5.68;65.22;101910.38;5065631;28;20036;-67
2023/03/27 06:21:48;;;;;;;4.65;2.40;;;;;;;5.69;65.34;101917.59;5060597;28;20489;-68
2023/03/27 06:24:14;;;;;;;7.47;3.55;;;;;;;5.73;65.38;101907.88;5065893;28;20063;-70
2023/03/27 06:26:39;;;;;;;5.70;3.40;;;;;;;5.73;66.12;101903.22;5057200;28;20059;-68
2023/03/27 06:29:05;;;;;;;12.70;3.22;;;;;;;5.73;66.35;101900.47;5066430;28;20042;-67
2023/03/27 06:31:30;;;;;;;6.65;3.35;;;;;;;5.70;66.31;101905.50;5058649;28;20036;-68
2023/03/27 06:33:57;;;;;;;4.95;3.10;;;;;;;5.66;66.17;101900.41;5062771;28;20025;-68
2023/03/27 06:36:22;;;;;;;3.30;3.00;;;;;;;5.64;66.28;101905.25;5061790;28;20037;-67
2023/03/27 06:38:47;;;;;;;6.93;3.67;;;;;;;5.65;66.46;101908.84;5060749;28;20032;-67
2023/03/27 06:41:13;;;;;;;6.70;3.70;;;;;;;5.60;66.31;101919.59;5066844;28;20112;-67
2023/03/27 06:43:38;;;;;;;4.35;2.60;;;;;;;5.62;66.60;101923.03;5052032;28;20029;-68
2023/03/27 06:46:05;;;;;;;4.85;2.78;;;;;;;5.61;66.56;101924.91;5060683;28;20139;-65
2023/03/27 06:48:30;;;;;;;6.05;2.80;;;;;;;5.63;67.12;101919.22;5064397;28;20539;-66
2023/03/27 06:50:56;;;;;;;6.32;3.03;;;;;;;5.70;68.09;101925.66;5058710;28;20025;-67
2023/03/27 06:53:22;;;;;;;4.95;2.85;;;;;;;5.73;67.40;101930.75;5056860;28;20031;-66
2023/03/27 06:55:49;;;;;;;4.35;2.80;;;;;;;5.75;66.64;101934.19;5058712;28;20040;-66
2023/03/27 06:58:17;;;;;;;4.57;2.92;;;;;;;5.80;66.54;101939.97;5066347;28;20042;-67
2023/03/27 07:00:43;;;;;;;4.85;2.60;;;;;;;5.84;66.51;101938.53;5057946;28;20578;-66
2023/03/27 07:03:09;;;;;;;3.70;2.80;;;;;;;5.83;65.95;101947.84;5057354;28;20028;-65
2023/03/27 07:05:37;;;;;;;10.15;2.70;;;;;;;5.87;66.92;101949.16;5059493;28;20091;-67
2023/03/27 07:08:05;;;;;;;4.68;2.50;;;;;;;5.88;66.84;101952.75;5050505;28;20869;-64
2023/03/27 07:10:30;;;;;;;5.70;2.42;;;;;;;5.94;66.72;101952.03;5057808;28;20032;-65
2023/03/27 07:12:55;;;;;;;5.30;2.40;;;;;;;5.97;66.24;101954.38;5061244;28;20429;-65
2023/03/27 07:15:23;;;;;;;5.82;2.75;;;;;;;6.00;66.24;101956.75;5063270;28;20551;-68
2023/03/27 07:17:57;;;;;;;3.70;2.38;;;;;;;6.03;66.86;101964.63;5053462;28;20029;-69
2023/03/27 07:20:24;;;;;;;4.55;2.58;;;;;;;6.05;66.70;101962.53;5053416;28;20025;-66
2023/03/27 07:22:50;;;;;;;6.82;2.58;;;;;;;6.05;65.83;101962.53;5064645;28;20059;-65
2023/03/27 07:25:15;;;;;;;5.25;2.58;;;;;;;6.12;65.77;101963.44;5065285;28;20260;-64
2023/03/27 07:27:41;;;;;;;5.00;2.45;;;;;;;6.19;65.78;101970.94;5062114;28;20036;-66
2023/03/27 07:30:07;;;;;;;4.57;2.60;;;;;;;6.22;65.57;101968.63;5058537;28;20426;-66
2023/03/27 07:32:36;;;;;;;7.25;2.80;;;;;;;6.26;65.78;101974.63;5079534;28;20021;-68
2023/03/27 07:35:04;;;;;;;4.90;2.30;;;;;;;6.37;65.62;101976.84;5060124;28;20569;-68
2023/03/27 07:37:29;;;;;;;5.57;2.50;;;;;;;6.46;65.21;101981.16;5068287;28;20070;-67
2023/03/27 07:39:55;;;;;;;7.80;2.60;;;;;;;6.49;64.12;101985.44;5070868;28;20137;-69
2023/03/27 07:42:21;;;;;;;4.88;2.30;;;;;;;6.57;64.07;101980.63;5063450;28;20025;-68
2023/03/27 07:44:46;;;;;;;4.97;2.60;;;;;;;6.68;64.36;101973.72;5071601;28;20036;-68
2023/03/27 07:47:11;;;;;;;6.88;2.25;;;;;;;6.76;63.59;101976.34;5069293;28;20029;-67
2023/03/27 07:49:37;;;;;;;5.18;2.25;;;;;;;6.86;63.56;101975.97;5074930;28;20027;-69
2023/03/27 07:52:03;;;;;;;6.35;2.33;;;;;;;6.98;63.40;101985.38;5064140;28;20066;-68
2023/03/27 07:54:31;;;;;;;5.45;2.38;;;;;;;7.06;62.38;101987.13;5062511;28;20052;-67
2023/03/27 07:56:57;;;;;;;7.20;2.13;;;;;;;7.19;61.78;101983.59;5062015;28;20032;-68
2023/03/27 07:59:22;;;;;;;7.72;2.40;;;;;;;7.28;61.32;101985.16;5068185;28;20082;-68
2023/03/27 08:01:49;;;;;;;9.55;2.33;;;;;;;7.42;60.51;101994.34;5059870;28;20172;-68
2023/03/27 08:04:16;;;;;;;4.85;1.92;;;;;;;7.49;60.36;101993.34;5074283;28;20107;-67
2023/03/27 08:06:41;;;;;;;8.23;2.25;;;;;;;7.61;59.80;101988.94;5067197;28;20028;-67
2023/03/27 08:09:07;;;;;;;7.38;2.33;;;;;;;7.74;59.95;101998.34;5063756;28;20752;-67
2023/03/27 08:11:33;;;;;;;6.82;1.98;;;;;;;7.83;58.56;101995.19;5064352;28;20047;-66
2023/03/27 08:13:58;;;;;;;6.47;2.30;;;;;;;7.95;58.81;102000.97;5075055;28;20468;-67
2023/03/27 08:16:27;;;;;;;8.75;2.20;;;;;;;7.97;58.53;102001.59;5073314;28;20061;-68
2023/03/27 08:18:54;;;;;;;8.70;2.35;;;;;;;7.96;58.86;102004.59;5057351;28;20074;-66
2023/03/27 08:21:20;;;;;;;5.35;2.15;;;;;;;8.01;58.95;102005.66;5060128;28;20039;-67
2023/03/27 08:23:46;;;;;;;10.23;2.25;;;;;;;7.99;58.74;102010.56;5062858;28;20036;-62
2023/03/27 08:26:12;;;;;;;5.15;2.00;;;;;;;7.99;58.35;102010.56;5055275;28;20029;-70
2023/03/27 08:28:38;;;;;;;6.50;2.05;;;;;;;8.52;69.84;102010.69;5059323;28;20040;-65
2023/03/27 08:31:15;;;;;;;6.68;1.63;;;;;;;8.37;60.65;102026.66;5058708;28;20025;-67
2023/03/27 08:33:41;;;;;;;5.35;1.70;;;;;;;8.25;58.47;102036.56;5073122;28;20024;-66
2023/03/27 08:36:08;;;;;;;4.28;1.50;;;;;;;8.23;57.17;102016.59;5067910;28;20039;-65
2023/03/27 08:38:34;;;;;;;6.10;1.60;;;;;;;8.31;57.33;102022.75;5063283;28;20036;-67
2023/03/27 08:41:02;;;;;;;6.35;2.38;;;;;;;8.99;66.92;102027.31;5055528;28;20036;-67
2023/03/27 08:43:36;;;;;;;7.97;2.22;;;;;;;8.95;57.51;102026.88;5071313;28;20103;-68
2023/03/27 08:46:20;;;;;;;4.57;1.50;;;;;;;9.07;58.14;102025.16;5067768;28;20119;-67
2023/03/27 08:49:00;;;;;;;6.18;1.45;;;;;;;9.06;57.02;102034.56;5065567;28;20044;-67
2023/03/27 08:51:33;;;;;;;9.60;1.90;;;;;;;9.09;55.69;102028.59;5068143;28;20430;-67
2023/03/27 08:54:07;;;;;;;;;;;;;;;9.23;57.99;102040.50;5067812;28;20036;-67
2023/03/27 08:56:33;;;;;;;7.03;1.65;;;;;;;9.01;53.74;102033.50;5068985;28;20284;-67
2023/03/27 08:59:00;;;;;;;7.22;1.90;;;;;;;9.13;55.38;102039.25;5054725;28;20032;-68
2023/03/27 09:01:39;;;;;;;3.47;1.55;;;;;;;9.25;54.80;102048.59;5052000;28;20029;-68
2023/03/27 09:04:42;;;;;;;6.72;2.03;;;;;;;9.37;55.19;102052.41;5054086;28;20476;-67
2023/03/27 09:07:26;;;;;;;8.23;1.52;;;;;;;9.46;54.88;102056.66;5064937;28;20048;-67
2023/03/27 09:10:11;;;;;;;4.57;1.73;;;;;;;9.51;53.38;102048.56;5058735;28;20557;-68
2023/03/27 09:13:06;;;;;;;3.65;1.48;;;;;;;9.54;53.28;102058.34;5050868;28;20049;-68
2023/03/27 09:15:38;;;;;;;7.65;1.55;;;;;;;9.50;52.04;102051.53;5059043;28;20070;-68
2023/03/27 09:18:11;;;;;;;9.20;1.80;;;;;;;9.34;50.75;102055.63;5051332;28;20029;-67
2023/03/27 09:20:42;;;;;;;4.03;1.48;;;;;;;9.39;51.01;102052.19;5049379;28;20033;-67
2023/03/27 09:23:20;;;;;;;6.22;1.40;;;;;;;9.20;50.28;102065.88;5065593;28;20037;-67
2023/03/27 09:25:54;;;;;;;7.00;1.85;;;;;;;9.08;50.95;102076.75;5066546;28;20383;-66
2023/03/27 09:28:28;;;;;;;5.25;1.50;;;;;;;8.87;54.47;102088.03;5055588;28;20387;-67
2023/03/27 09:30:54;;;;;;;3.55;1.27;;;;;;;8.81;56.05;102102.72;5071112;28;20042;-67
2023/03/27 09:33:20;;;;;;;3.83;1.42;;;;;;;8.51;56.10;102114.16;5056315;28;20047;-67
2023/03/27 09:35:46;;;;;;;3.55;1.20;;;;;;;8.15;57.57;102116.34;5058507;28;20075;-67
2023/03/27 09:38:27;;;;;;;3.33;1.30;;;;;;;7.97;58.61;102126.03;5079650;28;20040;-67
2023/03/27 09:40:58;;;;;;;2.63;1.05;;;;;;;7.84;59.26;102115.75;5066543;28;20115;-67
2023/03/27 09:43:30;;;;;;;4.35;1.55;;;;;;;7.70;58.29;102111.19;5061755;28;20029;-69
2023/03/27 09:45:57;;;;;;;;;;;;;;;7.88;58.70;102107.91;5064489;28;20044;-67
2023/03/27 09:48:37;;;;;;;3.13;1.20;;;;;;;7.67;60.36;102111.63;5066621;28;20398;-68
2023/03/27 09:51:04;;;;;;;4.32;1.50;;;;;;;7.54;59.10;102106.84;5069056;28;20024;-67
2023/03/27 09:53:29;;;;;;;2.85;1.20;;;;;;;7.55;60.11;102108.56;5069954;28;20106;-68
2023/03/27 09:55:57;;;;;;;3.50;1.50;;;;;;;7.50;60.86;102108.31;5057417;28;20029;-68
2023/03/27 09:58:47;;;;;;;2.75;1.23;;;;;;;7.58;59.37;102119.22;5056773;28;20543;-67
2023/03/27 10:01:29;;;;;;;3.30;1.38;;;;;;;7.63;60.28;102126.91;5061083;28;20028;-69
2023/03/27 10:03:58;;;;;;;4.13;1.33;;;;;;;7.65;60.05;102126.69;5056916;28;20028;-68
2023/03/27 10:06:36;;;;;;;3.75;1.40;;;;;;;7.68;59.50;102126.28;5067009;28;20032;-63
2023/03/27 10:09:19;;;;;;;4.07;2.70;;;;;;;7.74;58.89;102128.22;5059269;28;20033;-64
2023/03/27 10:11:50;;;;;;;3.90;2.28;;;;;;;7.86;59.89;102132.16;5060117;28;20974;-60
2023/03/27 10:14:18;;;;;;;3.95;1.50;;;;;;;8.07;59.00;102134.81;5055660;28;20036;-68
2023/03/27 10:16:46;;;;;;;5.55;1.75;;;;;;;8.27;58.50;102134.03;5056740;28;20681;-69
2023/03/27 10:19:29;;;;;;;5.60;1.50;;;;;;;8.48;59.27;102124.78;5054978;28;20024;-68
2023/03/27 10:21:58;;;;;;;8.57;1.60;;;;;;;8.68;58.64;102133.13;5062358;28;20032;-68
2023/03/27 10:24:35;;;;;;;5.25;1.92;;;;;;;8.81;58.44;102122.09;5073204;28;20040;-68
2023/03/27 10:27:05;;;;;;;8.05;1.75;;;;;;;8.90;58.08;102123.59;5069131;28;20026;-68
2023/03/27 10:29:36;;;;;;;6.72;1.83;;;;;;;9.09;58.09;102125.53;5056204;28;20384;-67
2023/03/27 10:32:04;;;;;;;4.63;1.50;;;;;;;9.26;57.48;102112.09;5053781;28;20500;-68
2023/03/27 10:34:37;;;;;;;5.07;2.03;;;;;;;9.43;58.36;102115.31;5058505;28;20094;-68
2023/03/27 10:37:19;;;;;;;6.07;1.95;;;;;;;9.58;57.24;102121.44;5065966;28;20452;-67
2023/03/27 10:39:45;;;;;;;5.97;1.70;;;;;;;9.68;57.01;102114.63;5056292;28;20036;-66
2023/03/27 10:42:15;;;;;;;2.47;1.35;;;;;;;9.75;55.41;102107.16;5057698;28;20041;-66
2023/03/27 10:44:43;;;;;;;4.53;1.45;;;;;;;9.75;54.33;102110.78;5052713;28;20028;-67
2023/03/27 10:47:19;;;;;;;3.88;1.10;;;;;;;9.78;55.06;102110.31;5058031;28;20024;-66
2023/03/27 10:49:57;;;;;;;4.43;1.10;;;;;;;9.83;54.74;102118.00;5057982;28;21884;-66
2023/03/27 10:52:39;;;;;;;7.05;1.60;;;;;;;9.91;53.66;102120.53;5048668;28;20162;-66
2023/03/27 10:55:35;;;;;;;3.05;1.20;;;;;;;9.98;54.14;102110.28;5055397;28;20086;-69
2023/03/27 10:58:16;;;;;;;2.58;1.10;;;;;;;10.02;53.55;102117.09;5055976;28;20033;-66
2023/03/27 11:00:52;;;;;;;4.13;1.30;;;;;;;9.91;52.13;102139.09;5066697;28;20086;-66
2023/03/27 11:03:45;;;;;;;5.10;1.55;;;;;;;9.72;52.89;102185.22;5064689;28;20028;-65
2023/03/27 11:06:15;;;;;;;7.78;1.70;;;;;;;9.37;54.81;102193.75;5066217;28;20086;-65
2023/03/27 11:09:04;;;;;;;6.15;1.90;;;;;;;9.10;56.12;102207.56;5056792;28;20024;-66
2023/03/27 11:11:35;;;;;;;5.15;1.90;;;;;;;8.74;56.62;102207.91;5050189;28;20055;-68
2023/03/27 11:14:10;;;;;;;6.15;2.30;;;;;;;8.44;57.69;102192.66;5057149;28;20509;-66
2023/03/27 11:16:48;;;;;;;4.55;1.83;;;;;;;8.29;59.14;102188.13;5065445;28;20032;-68
2023/03/27 11:19:36;;;;;;;5.35;1.80;;;;;;;8.17;59.54;102191.63;5056732;28;20085;-65
2023/03/27 11:22:06;;;;;;;4.88;1.60;;;;;;;8.04;60.31;102195.19;5060271;28;20041;-66
2023/03/27 11:24:54;;;;;;;4.05;1.50;;;;;;;8.13;61.21;102185.66;5068531;28;20062;-63
2023/03/27 11:27:40;;;;;;;3.28;1.60;;;;;;;8.24;61.07;102189.78;5072127;28;20048;-67
2023/03/27 11:30:13;;;;;;;4.10;1.63;;;;;;;8.36;61.55;102188.13;5070584;28;20036;-66
2023/03/27 11:33:01;;;;;;;5.90;2.15;;;;;;;8.48;62.32;102188.41;5057434;28;20033;-66
2023/03/27 11:35:35;;;;;;;6.13;1.80;;;;;;;8.74;64.87;102179.38;5059930;28;20119;-66
2023/03/27 11:38:11;;;;;;;5.13;1.67;;;;;;;8.87;64.30;102187.69;5060618;28;20070;-65
2023/03/27 11:40:41;;;;;;;5.15;1.70;;;;;;;8.92;61.31;102178.75;5053014;28;20488;-66
2023/03/27 11:43:10;;;;;;;8.75;1.60;;;;;;;8.98;63.31;102181.53;5054603;28;20117;-66
2023/03/27 11:46:08;;;;;;;3.88;1.60;;;;;;;9.12;62.83;102176.00;5062178;28;20024;-67
2023/03/27 11:48:41;;;;;;;4.68;1.40;;;;;;;9.17;64.11;102184.56;5060403;28;20123;-67
2023/03/27 11:51:12;;;;;;;6.93;1.98;;;;;;;9.18;63.40;102183.50;5051599;28;20025;-67